createdAt,value
2022-11-26T00:00:32.723Z,24.88
2022-11-26T00:05:34.275Z,23.92
2022-11-26T00:10:36.449Z,25.45
2022-11-26T00:15:38.138Z,25.15
2022-11-26T00:20:40.163Z,23.90
2022-11-26T00:25:44.723Z,23.35
2022-11-26T00:30:46.337Z,22.70
2022-11-26T00:35:50.277Z,22.45
2022-11-26T00:40:51.874Z,22.52
2022-11-26T00:45:53.490Z,23.30
2022-11-26T00:50:55.128Z,24.30
2022-11-26T00:55:56.683Z,23.50
2022-11-26T01:01:00.173Z,23.58
2022-11-26T01:06:01.894Z,22.85
2022-11-26T01:11:05.037Z,23.30
2022-11-26T01:16:29.789Z,23.02
2022-11-26T01:21:31.981Z,22.88
2022-11-26T01:26:44.291Z,22.77
2022-11-26T01:31:46.122Z,20.50
2022-11-26T01:36:47.731Z,20.67
2022-11-26T01:41:57.562Z,21.08
2022-11-26T01:47:00.529Z,20.77
2022-11-26T01:52:11.984Z,20.75
2022-11-26T01:57:18.785Z,20.00
2022-11-26T02:02:23.191Z,20.30
2022-11-26T02:07:24.851Z,24.38
2022-11-26T02:12:26.799Z,33.95
2022-11-26T02:17:39.476Z,27.42
2022-11-26T02:22:49.781Z,27.30
2022-11-26T02:27:57.123Z,39.53
2022-11-26T02:33:20.156Z,42.00
2022-11-26T02:38:24.578Z,27.20
2022-11-26T02:43:26.732Z,25.90
2022-11-26T02:48:34.223Z,23.23
2022-11-26T02:53:37.631Z,19.73
2022-11-26T02:58:39.749Z,19.00
2022-11-26T03:03:47.017Z,19.52
2022-11-26T03:08:49.116Z,19.45
2022-11-26T03:13:50.667Z,18.00
2022-11-26T03:18:52.250Z,18.90
2022-11-26T03:23:53.809Z,20.23
2022-11-26T03:28:55.361Z,18.17
2022-11-26T03:33:56.962Z,17.77
2022-11-26T03:38:58.538Z,18.45
2022-11-26T03:44:00.100Z,20.05
2022-11-26T03:49:01.674Z,17.75
2022-11-26T03:54:03.549Z,17.88
2022-11-26T03:59:05.387Z,17.38
2022-11-26T04:04:07.046Z,18.05
2022-11-26T04:09:08.733Z,18.10
2022-11-26T04:14:10.379Z,18.25
2022-11-26T04:19:12.047Z,17.42
2022-11-26T04:24:13.684Z,17.45
2022-11-26T04:29:15.241Z,16.67
2022-11-26T04:34:16.815Z,16.77
2022-11-26T04:39:18.361Z,16.27
2022-11-26T04:44:20.001Z,16.45
2022-11-26T04:49:21.605Z,15.30
2022-11-26T04:54:23.365Z,14.20
2022-11-26T04:59:25.003Z,12.52
2022-11-26T05:04:27.932Z,11.82
2022-11-26T05:09:29.545Z,10.63
2022-11-26T05:14:31.145Z,10.93
2022-11-26T05:19:32.787Z,10.40
2022-11-26T05:24:34.355Z,10.13
2022-11-26T05:29:35.950Z,10.15
2022-11-26T05:34:37.749Z,10.35
2022-11-26T05:39:39.492Z,10.25
2022-11-26T05:44:41.300Z,10.07
2022-11-26T05:49:43.007Z,10.18
2022-11-26T05:54:44.600Z,10.75
2022-11-26T05:59:49.113Z,9.50
2022-11-26T06:04:50.653Z,10.07
2022-11-26T06:09:52.207Z,10.68
2022-11-26T06:14:53.754Z,10.07
2022-11-26T06:19:55.317Z,10.00
2022-11-26T06:24:56.895Z,9.38
2022-11-26T06:29:58.440Z,9.52
2022-11-26T06:35:00.012Z,8.23
2022-11-26T06:40:01.994Z,8.75
2022-11-26T06:45:03.839Z,8.80
2022-11-26T06:50:10.583Z,8.40
2022-11-26T06:55:12.523Z,8.60
2022-11-26T07:00:14.370Z,9.30
2022-11-26T07:05:15.963Z,8.30
2022-11-26T07:10:17.795Z,8.35
2022-11-26T07:15:19.402Z,8.60
2022-11-26T07:20:21.097Z,9.30
2022-11-26T07:25:22.753Z,8.80
2022-11-26T07:30:24.317Z,7.57
2022-11-26T07:35:25.965Z,8.43
2022-11-26T07:40:27.572Z,8.52
2022-11-26T07:45:29.122Z,9.80
2022-11-26T07:50:31.238Z,9.68
2022-11-26T07:55:32.762Z,8.38
2022-11-26T08:00:34.348Z,8.55
2022-11-26T08:05:35.931Z,8.55
2022-11-26T08:10:38.081Z,7.93
2022-11-26T08:15:39.635Z,7.90
2022-11-26T08:20:41.199Z,8.15
2022-11-26T08:26:06.193Z,8.43
2022-11-26T08:31:07.104Z,8.75
2022-11-26T08:36:10.045Z,8.07
2022-11-26T08:41:14.955Z,7.75
2022-11-26T08:46:16.737Z,7.20
2022-11-26T08:51:18.479Z,7.05
2022-11-26T08:56:20.286Z,6.93
2022-11-26T09:01:24.955Z,6.53
2022-11-26T09:06:29.238Z,6.57
2022-11-26T09:11:32.337Z,6.18
2022-11-26T09:16:34.104Z,4.32
2022-11-26T09:21:36.472Z,3.75
2022-11-26T09:26:38.425Z,3.50
2022-11-26T09:31:54.938Z,3.13
2022-11-26T09:37:02.416Z,2.72
2022-11-26T09:42:24.529Z,3.30
2022-11-26T09:47:38.717Z,3.75
2022-11-26T09:52:48.276Z,3.40
2022-11-26T09:57:54.399Z,4.40
2022-11-26T10:02:57.717Z,4.22
2022-11-26T10:08:04.331Z,3.97
2022-11-26T10:13:19.445Z,3.88
2022-11-26T10:18:37.724Z,3.67
2022-11-26T10:23:57.836Z,3.50
2022-11-26T10:29:17.845Z,2.90
2022-11-26T10:34:29.851Z,3.22
2022-11-26T10:39:32.924Z,3.10
2022-11-26T10:44:40.590Z,3.47
2022-11-26T10:49:42.498Z,3.42
2022-11-26T10:54:45.231Z,3.72
2022-11-26T10:59:53.450Z,3.95
2022-11-26T11:04:57.959Z,5.10
2022-11-26T11:10:19.695Z,8.68
2022-11-26T11:15:33.842Z,7.03
2022-11-26T11:20:39.179Z,7.07
2022-11-26T11:25:45.973Z,7.18
2022-11-26T11:31:05.048Z,9.00
2022-11-26T11:36:19.036Z,10.55
2022-11-26T11:41:35.945Z,10.68
2022-11-26T11:46:46.702Z,11.30
2022-11-26T11:52:25.728Z,11.90
2022-11-26T11:57:39.491Z,11.60
2022-11-26T12:02:55.068Z,13.85
2022-11-26T12:08:22.833Z,14.65
2022-11-26T12:13:26.832Z,14.98
2022-11-26T12:18:48.035Z,14.75
2022-11-26T12:24:03.194Z,15.70
2022-11-26T12:29:14.858Z,16.48
2022-11-26T12:34:33.618Z,16.42
2022-11-26T12:39:43.045Z,17.45
2022-11-26T12:44:49.699Z,16.30
2022-11-26T12:50:23.244Z,17.77
2022-11-26T12:55:48.888Z,16.77
2022-11-26T13:00:54.603Z,16.73
2022-11-26T13:06:14.589Z,16.15
2022-11-26T13:11:29.977Z,15.52
2022-11-26T13:16:45.273Z,15.70
2022-11-26T13:21:56.045Z,17.38
2022-11-26T13:27:16.082Z,16.63
2022-11-26T13:32:29.539Z,15.38
2022-11-26T13:38:01.774Z,17.42
2022-11-26T13:43:22.801Z,17.48
2022-11-26T13:48:53.326Z,16.20
2022-11-26T13:54:17.919Z,15.88
2022-11-26T13:59:28.302Z,16.33
2022-11-26T14:04:33.479Z,13.77
2022-11-26T14:09:47.334Z,15.23
2022-11-26T14:14:50.357Z,15.48
2022-11-26T14:19:52.137Z,15.10
2022-11-26T14:25:12.364Z,14.95
2022-11-26T14:30:20.987Z,13.23
2022-11-26T14:35:34.610Z,13.87
2022-11-26T14:40:38.556Z,14.00
2022-11-26T14:45:40.721Z,14.45
2022-11-26T14:50:43.211Z,13.57
2022-11-26T14:55:46.079Z,14.35
2022-11-26T15:01:03.921Z,13.35
2022-11-26T15:06:05.722Z,13.00
2022-11-26T15:11:08.139Z,12.48
2022-11-26T15:16:53.985Z,13.48
2022-11-26T15:21:56.457Z,14.05
2022-11-26T15:26:58.009Z,14.20
2022-11-26T15:31:59.753Z,13.88
2022-11-26T15:37:01.346Z,14.25
2022-11-26T15:42:22.559Z,14.02
2022-11-26T15:47:27.738Z,13.65
2022-11-26T15:52:32.936Z,13.75
2022-11-26T15:57:40.961Z,14.80
2022-11-26T16:02:44.116Z,13.68
2022-11-26T16:08:21.625Z,14.93
2022-11-26T16:13:28.176Z,14.35
2022-11-26T16:18:54.038Z,14.65
2022-11-26T16:24:02.960Z,14.70
2022-11-26T16:29:09.950Z,15.40
2022-11-26T16:34:11.806Z,15.55
2022-11-26T16:39:15.229Z,15.25
2022-11-26T16:44:16.802Z,15.82
2022-11-26T16:49:18.408Z,17.10
2022-11-26T16:54:19.964Z,17.60
2022-11-26T16:59:28.116Z,18.58
2022-11-26T17:04:29.718Z,18.58
2022-11-26T17:09:31.313Z,22.65
2022-11-26T17:14:32.905Z,22.50
2022-11-26T17:19:34.452Z,36.15
2022-11-26T17:24:39.731Z,41.42
2022-11-26T17:29:42.970Z,73.80
2022-11-26T17:34:45.780Z,63.35
2022-11-26T17:39:47.534Z,48.00
2022-11-26T17:44:50.354Z,27.58
2022-11-26T17:49:52.702Z,26.58
2022-11-26T17:54:54.303Z,30.27
2022-11-26T17:59:56.700Z,27.42
2022-11-26T18:04:58.269Z,26.63
2022-11-26T18:09:59.906Z,26.23
2022-11-26T18:15:02.132Z,27.98
2022-11-26T18:20:04.021Z,28.45
2022-11-26T18:25:05.791Z,28.85
2022-11-26T18:30:08.073Z,29.60
2022-11-26T18:35:10.470Z,30.73
2022-11-26T18:40:17.097Z,31.77
2022-11-26T18:45:18.661Z,31.38
2022-11-26T18:50:20.329Z,32.20
2022-11-26T18:55:21.893Z,30.20
2022-11-26T19:00:23.630Z,30.17
2022-11-26T19:05:25.179Z,31.17
2022-11-26T19:10:26.833Z,29.73
2022-11-26T19:15:28.649Z,29.20
2022-11-26T19:20:30.215Z,28.90
2022-11-26T19:25:31.895Z,29.90
2022-11-26T19:30:33.847Z,32.13
2022-11-26T19:35:39.640Z,31.40
2022-11-26T19:40:41.190Z,31.33
2022-11-26T19:45:42.742Z,31.70
2022-11-26T19:50:44.830Z,30.48
2022-11-26T19:55:56.992Z,32.17
2022-11-26T20:00:58.692Z,31.63
2022-11-26T20:06:06.081Z,31.50
2022-11-26T20:11:09.028Z,30.55
2022-11-26T20:16:15.167Z,32.10
2022-11-26T20:21:20.332Z,31.98
2022-11-26T20:26:27.948Z,31.20
2022-11-26T20:31:30.302Z,31.20
2022-11-26T20:36:32.083Z,31.25
2022-11-26T20:41:34.570Z,32.15
2022-11-26T20:46:36.694Z,29.58
2022-11-26T20:51:38.841Z,30.40
2022-11-26T20:56:40.460Z,30.58
2022-11-26T21:01:42.173Z,32.03
2022-11-26T21:06:44.302Z,31.85
2022-11-26T21:11:45.858Z,34.08
2022-11-26T21:16:48.657Z,39.03
2022-11-26T21:21:50.227Z,59.53
2022-11-26T21:26:51.771Z,39.28
2022-11-26T21:31:53.586Z,34.35
2022-11-26T21:36:55.137Z,37.53
2022-11-26T21:41:56.709Z,40.40
2022-11-26T21:46:59.448Z,40.95
2022-11-26T21:52:01.022Z,36.58
2022-11-26T21:57:02.600Z,33.78
2022-11-26T22:02:06.161Z,31.98
2022-11-26T22:07:07.777Z,32.97
2022-11-26T22:12:11.331Z,32.05
2022-11-26T22:17:12.891Z,29.40
2022-11-26T22:22:14.522Z,27.83
2022-11-26T22:27:16.087Z,29.98
2022-11-26T22:32:17.655Z,30.67
2022-11-26T22:37:19.699Z,30.70
2022-11-26T22:42:21.343Z,31.23
2022-11-26T22:47:22.898Z,29.88
2022-11-26T22:52:24.443Z,31.58
2022-11-26T22:57:26.006Z,29.38
2022-11-26T23:02:28.278Z,35.35
2022-11-26T23:07:29.919Z,33.80
2022-11-26T23:12:31.501Z,33.38
2022-11-26T23:17:33.068Z,49.53
2022-11-26T23:22:34.640Z,28.50
2022-11-26T23:27:36.193Z,32.40
2022-11-26T23:32:37.729Z,29.55
2022-11-26T23:37:39.892Z,28.08
2022-11-26T23:42:41.497Z,25.05
2022-11-26T23:47:43.036Z,24.83
2022-11-26T23:52:44.590Z,23.67
2022-11-26T23:57:46.145Z,21.45
